Refine Search
Year Filed

2010 ×

Court

Washington Western ×

Click on desired case number or refine your search to continue

Case TitleCourtCase NoChpDate FiledClosedDisposition
Maison De Fraise LLCWashington Western2:10-bk-17311706/25/201011/03/2011Discharge Not Applicable
Osborn Residential LLCWashington Western2:10-bk-139291104/08/201007/29/2010Dismissed for Failure to File Information
Moonlight Meadow LLCWashington Western3:10-bk-41787703/10/201007/06/2010Discharge Not Applicable
2358-2372 South Yakima Avenue LLCWashington Western3:10-bk-422981103/25/201004/07/2011Dismissed for Other Reason 03/18/2011
Youth ResourcesWashington Western3:10-bk-47567709/14/2010
Jeffrey A Graham and Lost Lake Development LLCWashington Western3:10-bk-49543711/19/201002/13/2013
Queen High Full House LLCWashington Western3:10-bk-466121108/12/201005/05/2015Discharge Not Applicable
QL2 Software IncWashington Western2:10-bk-102091101/11/201002/15/2011Discharge Not Applicable
Huntington Properties III LLCWashington Western3:10-bk-476471109/16/201010/12/2011Dismissed for Other Reason 09/19/2011
Williams 123 LLCWashington Western3:10-bk-413511102/25/201002/15/2011Dismissed for Other Reason 01/27/2011
Current Industries IncWashington Western2:10-bk-10839701/29/201004/15/2013Discharge Not Applicable
ABS Investments LLCWashington Western3:10-bk-426311104/01/201007/06/2010Dismissed for Other Reason 06/11/2010
RTM Enterprises IncWashington Western2:10-bk-182681107/19/201009/24/2010Dismissed for Other Reason 08/30/2010
Greenspace IncWashington Western2:10-bk-182191107/16/201010/12/2011Dismissed for Other Reason 09/20/2011
Liquidation Outlet IncWashington Western3:10-bk-422791103/25/201008/25/2011Discharge Not Applicable
Coastal Leasing LLCWashington Western2:10-bk-110091102/01/201005/20/2010Dismissed for Other Reason 04/23/2010
Admiral Construction CorpWashington Western2:10-bk-139261104/08/201010/01/2010Dismissed for Failure to File Information 09/08/2010
Meridian Mortgage Investors Fund V LLCWashington Western2:10-bk-179521107/09/201010/07/2016Discharge Not Applicable
Mutual Realty LLCWashington Western2:10-bk-18057707/12/201009/26/2012
Meridian Mortgage Investors Fund IX LLCWashington Western2:10-bk-187271107/28/2010
Meridian Mortgage Investors Fund VII LLCWashington Western2:10-bk-179531107/09/201010/07/2016Discharge Not Applicable
Slidework LLCWashington Western2:10-bk-142121104/15/201006/23/2011Dismissed for Other Reason 06/02/2011
Sun Furniture IncWashington Western3:10-bk-412881102/24/201008/12/2010Dismissed for Other Reason 07/22/2010
Verwolf Building and Interiors LLCWashington Western2:10-bk-10146701/08/201012/12/2012Discharge Not Applicable
4Miles LLCWashington Western2:10-bk-209501109/15/201007/22/2013Dismissed for Other Reason 06/30/2013
United Reprographics LLCWashington Western2:10-bk-205631109/03/201009/21/2011Discharge Not Applicable
105th Street Associates LLCWashington Western2:10-bk-111181102/04/201003/09/2010Dismissed for Other Reason 02/18/2010
Waldron Trucking LLCWashington Western2:10-bk-226261110/21/201007/11/2012Dismissed for Other Reason 06/20/2012
Stine A Nelson Homes LLCWashington Western2:10-bk-114271102/11/201001/06/2011Dismissed for Other Reason
Pinnacle Industries IncWashington Western2:10-bk-10467701/20/201009/24/2014Discharge Not Applicable
First Investments LLCWashington Western3:10-bk-50136712/10/201004/08/2011Discharge Not Applicable
Hawks Prairie Investment LLCWashington Western3:10-bk-466351108/13/201012/28/2016
Calvin and Co LLCWashington Western2:10-bk-15475705/13/201010/06/2010Discharge Not Applicable
Global Product Manuafacturing CorpWashington Western2:10-bk-153361105/10/201005/10/2012Dismissed for Other Reason 04/17/2012
DT Marshall CompanyWashington Western2:10-bk-153941105/12/201002/01/2011Discharge Not Applicable
Meridian Transportation Resources LLCWashington Western2:10-bk-237561111/15/201007/23/2012Discharge Not Applicable
American Door Services IncWashington Western2:10-bk-13252703/24/201003/26/2013Discharge Not Applicable
Taco Del Mar Franchising Corp and Conrad and Barry Investments IncWashington Western2:10-bk-105281101/22/201011/23/2011Discharge Not Applicable
JAFA Enterprises IncWashington Western2:10-bk-25411712/28/201004/06/2011Discharge Not Applicable
Newberry Hill Investment LLCWashington Western2:10-bk-11979702/25/201008/02/2010Discharge Not Applicable
312 E Olive Place LLCWashington Western2:10-bk-148881104/29/201009/10/2012Discharge Not Applicable
FRB IncWashington Western2:10-bk-12286703/02/2010
Husum Enterprises LLCWashington Western3:10-bk-47725709/20/201010/09/2012Discharge Not Applicable
Cleo Investments LLCWashington Western2:10-bk-213111109/23/201006/13/2014Discharge Not Applicable
Meridian Mortgage Investors Fund X LLCWashington Western2:10-bk-187281107/28/2010
Meridian Mortgage Investors Fund VIII LLCWashington Western2:10-bk-179581107/09/2010
NW Van and Motor Home Rental LLCWashington Western2:10-bk-178771107/07/201009/22/2010Dismissed for Abuse 09/02/2010
Meridian Mortgage Investors Fund II LLCWashington Western2:10-bk-179761107/09/2010
MS and SK IncWashington Western2:10-bk-127061103/11/201010/13/2010Dismissed for Other Reason 09/13/2010
Tacos Y Mas of Smoky Point IncWashington Western2:10-bk-247461112/09/201003/21/2011Dismissed for Failure to File Information 01/24/2011